KAL925 EHAM-LEMD

(1/3) > >>

Jonas:
Route
LEKKO UB31 WOODY UN872 KOVIN UY317 RESMI UN857 SAU UN10 BAN

Destination Wx
LEMD 221430Z 11002KT CAVOK 18/03 Q1022 NOSIG




























nighty142:
Mycket fint! 

Nemesis:
Quote

Mycket fint! 

Håller med 

niclasm:
Kan bara hålla med!
Mycket snyggt

//Niclas

fredde_fredde:
Mycket snyggt!

Navigation

Up one level

Next page